sensor_id;sensor_type;location;lat;lon;timestamp;P1;durP1;ratioP1;P2;durP2;ratioP2
16577;SDS011;8401;52.528;13.340;2022-09-09T00:01:43;7.13;;;6.43;;
16577;SDS011;8401;52.528;13.340;2022-09-09T00:09:47;7.70;;;6.90;;
16577;SDS011;8401;52.528;13.340;2022-09-09T00:15:23;7.23;;;6.33;;
16577;SDS011;8401;52.528;13.340;2022-09-09T00:22:49;8.27;;;6.50;;
16577;SDS011;8401;52.528;13.340;2022-09-09T00:25:28;6.87;;;6.17;;
16577;SDS011;8401;52.528;13.340;2022-09-09T00:27:59;7.47;;;6.63;;
16577;SDS011;8401;52.528;13.340;2022-09-09T00:30:26;7.27;;;6.57;;
16577;SDS011;8401;52.528;13.340;2022-09-09T00:33:05;9.90;;;6.43;;
16577;SDS011;8401;52.528;13.340;2022-09-09T00:36:14;6.47;;;5.87;;
16577;SDS011;8401;52.528;13.340;2022-09-09T00:38:38;8.03;;;6.27;;
16577;SDS011;8401;52.528;13.340;2022-09-09T00:43:47;7.53;;;6.73;;
16577;SDS011;8401;52.528;13.340;2022-09-09T00:54:12;7.53;;;6.67;;
16577;SDS011;8401;52.528;13.340;2022-09-09T00:56:59;7.30;;;6.40;;
16577;SDS011;8401;52.528;13.340;2022-09-09T00:59:50;6.37;;;5.77;;
16577;SDS011;8401;52.528;13.340;2022-09-09T01:02:21;6.87;;;6.27;;
16577;SDS011;8401;52.528;13.340;2022-09-09T01:04:51;6.67;;;6.07;;
16577;SDS011;8401;52.528;13.340;2022-09-09T01:07:17;6.73;;;5.93;;
16577;SDS011;8401;52.528;13.340;2022-09-09T01:12:43;8.23;;;6.40;;
16577;SDS011;8401;52.528;13.340;2022-09-09T01:18:00;9.10;;;6.57;;
16577;SDS011;8401;52.528;13.340;2022-09-09T01:28:39;6.43;;;5.83;;
16577;SDS011;8401;52.528;13.340;2022-09-09T01:31:07;6.50;;;5.80;;
16577;SDS011;8401;52.528;13.340;2022-09-09T01:33:36;6.47;;;5.87;;
16577;SDS011;8401;52.528;13.340;2022-09-09T01:36:06;7.07;;;6.17;;
16577;SDS011;8401;52.528;13.340;2022-09-09T01:38:35;7.90;;;7.10;;
16577;SDS011;8401;52.528;13.340;2022-09-09T01:41:01;7.50;;;6.50;;
16577;SDS011;8401;52.528;13.340;2022-09-09T01:43:27;7.13;;;6.40;;
16577;SDS011;8401;52.528;13.340;2022-09-09T01:45:55;6.80;;;6.10;;
16577;SDS011;8401;52.528;13.340;2022-09-09T01:48:23;8.83;;;6.63;;
16577;SDS011;8401;52.528;13.340;2022-09-09T01:50:50;7.63;;;6.90;;
16577;SDS011;8401;52.528;13.340;2022-09-09T01:53:17;8.40;;;7.23;;
16577;SDS011;8401;52.528;13.340;2022-09-09T01:55:45;7.67;;;6.40;;
16577;SDS011;8401;52.528;13.340;2022-09-09T02:01:12;7.63;;;6.83;;
16577;SDS011;8401;52.528;13.340;2022-09-09T02:04:02;8.27;;;6.43;;
16577;SDS011;8401;52.528;13.340;2022-09-09T02:06:39;7.33;;;6.30;;
16577;SDS011;8401;52.528;13.340;2022-09-09T02:09:06;9.47;;;6.60;;
16577;SDS011;8401;52.528;13.340;2022-09-09T02:11:36;8.07;;;6.90;;
16577;SDS011;8401;52.528;13.340;2022-09-09T02:14:04;8.33;;;6.63;;
16577;SDS011;8401;52.528;13.340;2022-09-09T02:16:39;7.17;;;6.30;;
16577;SDS011;8401;52.528;13.340;2022-09-09T02:19:23;8.20;;;6.03;;
16577;SDS011;8401;52.528;13.340;2022-09-09T02:21:55;7.13;;;6.43;;
16577;SDS011;8401;52.528;13.340;2022-09-09T02:24:22;9.60;;;6.00;;
16577;SDS011;8401;52.528;13.340;2022-09-09T02:26:49;7.67;;;5.80;;
16577;SDS011;8401;52.528;13.340;2022-09-09T02:29:23;11.17;;;5.90;;
16577;SDS011;8401;52.528;13.340;2022-09-09T02:31:58;7.47;;;6.67;;
16577;SDS011;8401;52.528;13.340;2022-09-09T02:34:28;7.63;;;5.77;;
16577;SDS011;8401;52.528;13.340;2022-09-09T02:36:55;7.77;;;6.27;;
16577;SDS011;8401;52.528;13.340;2022-09-09T02:39:24;6.10;;;5.50;;
16577;SDS011;8401;52.528;13.340;2022-09-09T02:41:50;6.37;;;5.77;;
16577;SDS011;8401;52.528;13.340;2022-09-09T02:44:17;7.03;;;5.93;;
16577;SDS011;8401;52.528;13.340;2022-09-09T02:55:11;7.17;;;6.47;;
16577;SDS011;8401;52.528;13.340;2022-09-09T02:57:50;6.30;;;5.70;;
16577;SDS011;8401;52.528;13.340;2022-09-09T03:00:22;7.50;;;5.90;;
16577;SDS011;8401;52.528;13.340;2022-09-09T03:02:50;8.43;;;6.33;;
16577;SDS011;8401;52.528;13.340;2022-09-09T03:05:16;9.03;;;5.97;;
16577;SDS011;8401;52.528;13.340;2022-09-09T03:07:42;6.80;;;6.13;;
16577;SDS011;8401;52.528;13.340;2022-09-09T03:10:07;7.33;;;5.90;;
16577;SDS011;8401;52.528;13.340;2022-09-09T03:12:33;6.00;;;5.40;;
16577;SDS011;8401;52.528;13.340;2022-09-09T03:14:59;7.07;;;6.27;;
16577;SDS011;8401;52.528;13.340;2022-09-09T03:17:24;7.23;;;5.70;;
16577;SDS011;8401;52.528;13.340;2022-09-09T03:19:50;6.17;;;5.57;;
16577;SDS011;8401;52.528;13.340;2022-09-09T03:22:17;8.10;;;5.80;;
16577;SDS011;8401;52.528;13.340;2022-09-09T03:24:43;8.30;;;5.33;;
16577;SDS011;8401;52.528;13.340;2022-09-09T03:27:08;6.50;;;5.27;;
16577;SDS011;8401;52.528;13.340;2022-09-09T03:29:34;8.80;;;5.23;;
16577;SDS011;8401;52.528;13.340;2022-09-09T03:31:59;7.13;;;5.77;;
16577;SDS011;8401;52.528;13.340;2022-09-09T03:34:25;8.00;;;5.53;;
16577;SDS011;8401;52.528;13.340;2022-09-09T03:36:51;6.53;;;5.50;;
16577;SDS011;8401;52.528;13.340;2022-09-09T03:39:16;5.87;;;5.13;;
16577;SDS011;8401;52.528;13.340;2022-09-09T03:41:42;7.50;;;5.10;;
16577;SDS011;8401;52.528;13.340;2022-09-09T03:44:10;5.20;;;4.43;;
16577;SDS011;8401;52.528;13.340;2022-09-09T03:46:35;8.20;;;5.40;;
16577;SDS011;8401;52.528;13.340;2022-09-09T03:49:01;6.13;;;5.37;;
16577;SDS011;8401;52.528;13.340;2022-09-09T03:51:27;6.40;;;4.80;;
16577;SDS011;8401;52.528;13.340;2022-09-09T03:53:52;5.50;;;5.00;;
16577;SDS011;8401;52.528;13.340;2022-09-09T03:56:20;6.73;;;5.30;;
16577;SDS011;8401;52.528;13.340;2022-09-09T03:58:46;4.87;;;4.43;;
16577;SDS011;8401;52.528;13.340;2022-09-09T04:01:12;6.17;;;4.90;;
16577;SDS011;8401;52.528;13.340;2022-09-09T04:03:39;7.07;;;5.50;;
16577;SDS011;8401;52.528;13.340;2022-09-09T04:06:06;6.10;;;4.97;;
16577;SDS011;8401;52.528;13.340;2022-09-09T04:08:32;5.53;;;4.73;;
16577;SDS011;8401;52.528;13.340;2022-09-09T04:11:00;6.77;;;6.03;;
16577;SDS011;8401;52.528;13.340;2022-09-09T04:13:31;6.60;;;4.83;;
16577;SDS011;8401;52.528;13.340;2022-09-09T04:16:00;5.70;;;5.10;;
16577;SDS011;8401;52.528;13.340;2022-09-09T04:18:28;7.03;;;5.47;;
16577;SDS011;8401;52.528;13.340;2022-09-09T04:20:54;8.53;;;5.70;;
16577;SDS011;8401;52.528;13.340;2022-09-09T04:23:22;6.67;;;4.90;;
16577;SDS011;8401;52.528;13.340;2022-09-09T04:25:52;5.00;;;4.43;;
16577;SDS011;8401;52.528;13.340;2022-09-09T04:28:20;13.00;;;5.40;;
16577;SDS011;8401;52.528;13.340;2022-09-09T04:30:47;6.60;;;5.17;;
16577;SDS011;8401;52.528;13.340;2022-09-09T04:33:13;6.60;;;4.80;;
16577;SDS011;8401;52.528;13.340;2022-09-09T04:35:39;7.67;;;5.60;;
16577;SDS011;8401;52.528;13.340;2022-09-09T04:38:08;6.57;;;5.13;;
16577;SDS011;8401;52.528;13.340;2022-09-09T04:40:34;7.10;;;5.43;;
16577;SDS011;8401;52.528;13.340;2022-09-09T04:43:01;5.43;;;4.60;;
16577;SDS011;8401;52.528;13.340;2022-09-09T04:45:29;6.37;;;5.13;;
16577;SDS011;8401;52.528;13.340;2022-09-09T04:47:56;6.30;;;5.10;;
16577;SDS011;8401;52.528;13.340;2022-09-09T04:50:21;8.53;;;4.97;;
16577;SDS011;8401;52.528;13.340;2022-09-09T04:52:47;6.73;;;4.70;;
16577;SDS011;8401;52.528;13.340;2022-09-09T04:55:13;5.43;;;4.53;;
16577;SDS011;8401;52.528;13.340;2022-09-09T04:57:42;5.27;;;4.77;;
16577;SDS011;8401;52.528;13.340;2022-09-09T05:00:08;4.53;;;4.13;;
16577;SDS011;8401;52.528;13.340;2022-09-09T05:02:38;5.43;;;4.80;;
16577;SDS011;8401;52.528;13.340;2022-09-09T05:05:04;5.90;;;4.77;;
16577;SDS011;8401;52.528;13.340;2022-09-09T05:07:30;7.47;;;4.97;;
16577;SDS011;8401;52.528;13.340;2022-09-09T05:09:56;6.73;;;5.07;;
16577;SDS011;8401;52.528;13.340;2022-09-09T05:12:22;6.73;;;4.90;;
16577;SDS011;8401;52.528;13.340;2022-09-09T05:14:50;5.67;;;4.37;;
16577;SDS011;8401;52.528;13.340;2022-09-09T05:17:16;6.00;;;4.27;;
16577;SDS011;8401;52.528;13.340;2022-09-09T05:19:42;4.67;;;3.70;;
16577;SDS011;8401;52.528;13.340;2022-09-09T05:22:08;4.57;;;4.17;;
16577;SDS011;8401;52.528;13.340;2022-09-09T05:24:33;4.87;;;3.80;;
16577;SDS011;8401;52.528;13.340;2022-09-09T05:26:59;4.83;;;4.20;;
16577;SDS011;8401;52.528;13.340;2022-09-09T05:29:27;5.83;;;4.57;;
16577;SDS011;8401;52.528;13.340;2022-09-09T05:31:53;4.73;;;4.23;;
16577;SDS011;8401;52.528;13.340;2022-09-09T05:34:18;8.10;;;4.17;;
16577;SDS011;8401;52.528;13.340;2022-09-09T05:36:45;6.83;;;3.77;;
16577;SDS011;8401;52.528;13.340;2022-09-09T05:39:11;5.20;;;3.90;;
16577;SDS011;8401;52.528;13.340;2022-09-09T05:41:37;6.07;;;3.83;;
16577;SDS011;8401;52.528;13.340;2022-09-09T05:44:03;5.03;;;4.13;;
16577;SDS011;8401;52.528;13.340;2022-09-09T05:46:28;6.50;;;4.00;;
16577;SDS011;8401;52.528;13.340;2022-09-09T05:48:55;4.97;;;3.70;;
16577;SDS011;8401;52.528;13.340;2022-09-09T05:51:24;7.43;;;4.30;;
16577;SDS011;8401;52.528;13.340;2022-09-09T05:53:53;6.00;;;4.10;;
16577;SDS011;8401;52.528;13.340;2022-09-09T05:56:21;5.13;;;3.70;;
16577;SDS011;8401;52.528;13.340;2022-09-09T05:58:50;5.03;;;3.70;;
16577;SDS011;8401;52.528;13.340;2022-09-09T06:01:20;7.23;;;3.53;;
16577;SDS011;8401;52.528;13.340;2022-09-09T06:03:48;5.73;;;3.73;;
16577;SDS011;8401;52.528;13.340;2022-09-09T06:06:25;5.63;;;3.43;;
16577;SDS011;8401;52.528;13.340;2022-09-09T06:08:53;6.90;;;3.53;;
16577;SDS011;8401;52.528;13.340;2022-09-09T06:11:24;4.63;;;3.20;;
16577;SDS011;8401;52.528;13.340;2022-09-09T06:13:51;5.13;;;3.20;;
16577;SDS011;8401;52.528;13.340;2022-09-09T06:16:19;5.23;;;4.10;;
16577;SDS011;8401;52.528;13.340;2022-09-09T06:18:47;7.23;;;3.80;;
16577;SDS011;8401;52.528;13.340;2022-09-09T06:21:18;6.67;;;3.80;;
16577;SDS011;8401;52.528;13.340;2022-09-09T06:23:45;7.07;;;3.90;;
16577;SDS011;8401;52.528;13.340;2022-09-09T06:26:13;7.40;;;4.93;;
16577;SDS011;8401;52.528;13.340;2022-09-09T06:28:42;6.50;;;3.67;;
16577;SDS011;8401;52.528;13.340;2022-09-09T06:31:08;7.33;;;4.13;;
16577;SDS011;8401;52.528;13.340;2022-09-09T06:33:37;4.47;;;3.30;;
16577;SDS011;8401;52.528;13.340;2022-09-09T06:36:13;7.20;;;4.10;;
16577;SDS011;8401;52.528;13.340;2022-09-09T06:38:40;6.10;;;3.60;;
16577;SDS011;8401;52.528;13.340;2022-09-09T06:41:07;9.13;;;3.60;;
16577;SDS011;8401;52.528;13.340;2022-09-09T06:43:34;6.47;;;3.07;;
16577;SDS011;8401;52.528;13.340;2022-09-09T06:46:13;4.47;;;3.87;;
16577;SDS011;8401;52.528;13.340;2022-09-09T06:48:41;6.50;;;3.80;;
16577;SDS011;8401;52.528;13.340;2022-09-09T06:51:13;6.43;;;3.90;;
16577;SDS011;8401;52.528;13.340;2022-09-09T06:53:52;4.90;;;3.30;;
16577;SDS011;8401;52.528;13.340;2022-09-09T06:56:33;5.27;;;3.90;;
16577;SDS011;8401;52.528;13.340;2022-09-09T06:59:06;4.03;;;3.10;;
16577;SDS011;8401;52.528;13.340;2022-09-09T07:01:37;6.23;;;3.10;;
16577;SDS011;8401;52.528;13.340;2022-09-09T07:04:05;9.47;;;3.07;;
16577;SDS011;8401;52.528;13.340;2022-09-09T07:06:36;6.07;;;3.47;;
16577;SDS011;8401;52.528;13.340;2022-09-09T07:09:04;3.37;;;2.70;;
16577;SDS011;8401;52.528;13.340;2022-09-09T07:11:34;4.87;;;3.13;;
16577;SDS011;8401;52.528;13.340;2022-09-09T07:14:13;6.47;;;3.30;;
16577;SDS011;8401;52.528;13.340;2022-09-09T07:16:43;4.60;;;2.80;;
16577;SDS011;8401;52.528;13.340;2022-09-09T07:19:10;3.77;;;2.90;;
16577;SDS011;8401;52.528;13.340;2022-09-09T07:21:36;6.23;;;2.87;;
16577;SDS011;8401;52.528;13.340;2022-09-09T07:24:02;4.57;;;2.27;;
16577;SDS011;8401;52.528;13.340;2022-09-09T07:26:29;3.57;;;2.70;;
16577;SDS011;8401;52.528;13.340;2022-09-09T07:28:56;4.50;;;2.37;;
16577;SDS011;8401;52.528;13.340;2022-09-09T07:33:52;3.75;;;2.08;;
16577;SDS011;8401;52.528;13.340;2022-09-09T07:36:19;2.75;;;2.20;;
16577;SDS011;8401;52.528;13.340;2022-09-09T07:38:51;4.53;;;2.22;;
16577;SDS011;8401;52.528;13.340;2022-09-09T07:41:23;3.33;;;2.00;;
16577;SDS011;8401;52.528;13.340;2022-09-09T07:43:50;4.55;;;2.10;;
16577;SDS011;8401;52.528;13.340;2022-09-09T07:46:19;2.70;;;1.70;;
16577;SDS011;8401;52.528;13.340;2022-09-09T07:48:49;3.50;;;2.00;;
16577;SDS011;8401;52.528;13.340;2022-09-09T07:51:21;2.63;;;1.80;;
16577;SDS011;8401;52.528;13.340;2022-09-09T07:53:54;3.67;;;1.77;;
16577;SDS011;8401;52.528;13.340;2022-09-09T07:56:25;4.85;;;1.98;;
16577;SDS011;8401;52.528;13.340;2022-09-09T07:58:52;5.95;;;1.73;;
16577;SDS011;8401;52.528;13.340;2022-09-09T08:01:20;3.47;;;1.67;;
16577;SDS011;8401;52.528;13.340;2022-09-09T08:03:58;2.22;;;1.45;;
16577;SDS011;8401;52.528;13.340;2022-09-09T08:06:36;2.70;;;1.95;;
16577;SDS011;8401;52.528;13.340;2022-09-09T08:09:03;3.30;;;1.60;;
16577;SDS011;8401;52.528;13.340;2022-09-09T08:11:30;4.93;;;1.50;;
16577;SDS011;8401;52.528;13.340;2022-09-09T08:13:56;3.33;;;1.90;;
16577;SDS011;8401;52.528;13.340;2022-09-09T08:16:23;5.20;;;1.60;;
16577;SDS011;8401;52.528;13.340;2022-09-09T08:18:51;2.90;;;1.88;;
16577;SDS011;8401;52.528;13.340;2022-09-09T08:21:19;3.83;;;1.50;;
16577;SDS011;8401;52.528;13.340;2022-09-09T08:23:46;2.33;;;1.60;;
16577;SDS011;8401;52.528;13.340;2022-09-09T08:26:16;3.10;;;1.60;;
16577;SDS011;8401;52.528;13.340;2022-09-09T08:28:48;4.63;;;1.80;;
16577;SDS011;8401;52.528;13.340;2022-09-09T08:31:17;3.22;;;1.60;;
16577;SDS011;8401;52.528;13.340;2022-09-09T08:33:53;4.32;;;1.95;;
16577;SDS011;8401;52.528;13.340;2022-09-09T08:36:21;4.57;;;2.47;;
16577;SDS011;8401;52.528;13.340;2022-09-09T08:38:51;3.47;;;1.88;;
16577;SDS011;8401;52.528;13.340;2022-09-09T08:44:07;5.20;;;2.33;;
16577;SDS011;8401;52.528;13.340;2022-09-09T08:52:25;4.80;;;2.40;;
16577;SDS011;8401;52.528;13.340;2022-09-09T08:54:54;4.82;;;3.17;;
16577;SDS011;8401;52.528;13.340;2022-09-09T08:57:23;4.72;;;2.42;;
16577;SDS011;8401;52.528;13.340;2022-09-09T08:59:51;6.30;;;2.53;;
16577;SDS011;8401;52.528;13.340;2022-09-09T09:02:21;4.10;;;2.33;;
16577;SDS011;8401;52.528;13.340;2022-09-09T09:10:44;5.70;;;1.95;;
16577;SDS011;8401;52.528;13.340;2022-09-09T09:13:20;4.00;;;2.10;;
16577;SDS011;8401;52.528;13.340;2022-09-09T09:15:53;3.83;;;1.92;;
16577;SDS011;8401;52.528;13.340;2022-09-09T09:18:42;3.08;;;2.10;;
16577;SDS011;8401;52.528;13.340;2022-09-09T09:23:42;2.13;;;1.52;;
16577;SDS011;8401;52.528;13.340;2022-09-09T09:26:15;3.78;;;1.67;;
16577;SDS011;8401;52.528;13.340;2022-09-09T09:28:42;5.00;;;1.80;;
16577;SDS011;8401;52.528;13.340;2022-09-09T09:31:11;5.03;;;1.67;;
16577;SDS011;8401;52.528;13.340;2022-09-09T09:36:18;4.22;;;1.67;;
16577;SDS011;8401;52.528;13.340;2022-09-09T09:38:52;4.80;;;1.60;;
16577;SDS011;8401;52.528;13.340;2022-09-09T09:41:33;1.90;;;1.70;;
16577;SDS011;8401;52.528;13.340;2022-09-09T09:44:28;2.53;;;1.52;;
16577;SDS011;8401;52.528;13.340;2022-09-09T09:47:07;3.20;;;1.90;;
16577;SDS011;8401;52.528;13.340;2022-09-09T09:49:35;4.65;;;1.67;;
16577;SDS011;8401;52.528;13.340;2022-09-09T09:52:05;2.13;;;1.10;;
16577;SDS011;8401;52.528;13.340;2022-09-09T09:54:33;3.72;;;1.55;;
16577;SDS011;8401;52.528;13.340;2022-09-09T09:57:09;2.60;;;1.15;;
16577;SDS011;8401;52.528;13.340;2022-09-09T09:59:36;3.22;;;1.50;;
16577;SDS011;8401;52.528;13.340;2022-09-09T10:02:18;4.45;;;1.50;;
16577;SDS011;8401;52.528;13.340;2022-09-09T10:04:59;4.18;;;1.70;;
16577;SDS011;8401;52.528;13.340;2022-09-09T10:07:29;3.50;;;1.48;;
16577;SDS011;8401;52.528;13.340;2022-09-09T10:09:55;2.40;;;1.20;;
16577;SDS011;8401;52.528;13.340;2022-09-09T10:12:42;4.07;;;1.40;;
16577;SDS011;8401;52.528;13.340;2022-09-09T10:15:31;3.10;;;1.40;;
16577;SDS011;8401;52.528;13.340;2022-09-09T10:18:22;5.38;;;1.80;;
16577;SDS011;8401;52.528;13.340;2022-09-09T10:41:00;3.03;;;1.75;;
16577;SDS011;8401;52.528;13.340;2022-09-09T10:49:38;3.17;;;1.92;;
16577;SDS011;8401;52.528;13.340;2022-09-09T10:52:29;2.13;;;1.35;;
16577;SDS011;8401;52.528;13.340;2022-09-09T10:55:13;6.00;;;2.10;;
16577;SDS011;8401;52.528;13.340;2022-09-09T10:57:51;1.85;;;1.20;;
16577;SDS011;8401;52.528;13.340;2022-09-09T11:03:14;2.92;;;1.70;;
16577;SDS011;8401;52.528;13.340;2022-09-09T11:06:06;4.95;;;1.67;;
16577;SDS011;8401;52.528;13.340;2022-09-09T11:08:39;3.17;;;1.20;;
16577;SDS011;8401;52.528;13.340;2022-09-09T11:13:53;1.92;;;1.30;;
16577;SDS011;8401;52.528;13.340;2022-09-09T11:16:23;3.45;;;1.30;;
16577;SDS011;8401;52.528;13.340;2022-09-09T11:18:51;3.53;;;1.42;;
16577;SDS011;8401;52.528;13.340;2022-09-09T11:21:25;2.30;;;1.55;;
16577;SDS011;8401;52.528;13.340;2022-09-09T11:23:58;3.65;;;1.98;;
16577;SDS011;8401;52.528;13.340;2022-09-09T11:26:32;2.88;;;1.30;;
16577;SDS011;8401;52.528;13.340;2022-09-09T11:29:57;2.95;;;1.27;;
16577;SDS011;8401;52.528;13.340;2022-09-09T11:38:29;3.60;;;1.20;;
16577;SDS011;8401;52.528;13.340;2022-09-09T11:41:16;2.67;;;1.08;;
16577;SDS011;8401;52.528;13.340;2022-09-09T11:43:46;1.52;;;1.08;;
16577;SDS011;8401;52.528;13.340;2022-09-09T11:46:16;6.07;;;1.02;;
16577;SDS011;8401;52.528;13.340;2022-09-09T11:48:45;2.30;;;0.93;;
16577;SDS011;8401;52.528;13.340;2022-09-09T11:51:27;2.58;;;1.10;;
16577;SDS011;8401;52.528;13.340;2022-09-09T12:01:49;2.13;;;0.90;;
16577;SDS011;8401;52.528;13.340;2022-09-09T12:04:28;2.33;;;1.05;;
16577;SDS011;8401;52.528;13.340;2022-09-09T12:06:59;4.40;;;0.90;;
16577;SDS011;8401;52.528;13.340;2022-09-09T12:12:06;2.75;;;1.27;;
16577;SDS011;8401;52.528;13.340;2022-09-09T12:14:44;2.05;;;1.05;;
16577;SDS011;8401;52.528;13.340;2022-09-09T12:17:28;1.42;;;1.00;;
16577;SDS011;8401;52.528;13.340;2022-09-09T12:20:13;2.10;;;1.20;;
16577;SDS011;8401;52.528;13.340;2022-09-09T12:22:50;2.90;;;1.45;;
16577;SDS011;8401;52.528;13.340;2022-09-09T12:28:16;2.58;;;1.23;;
16577;SDS011;8401;52.528;13.340;2022-09-09T12:30:56;2.17;;;0.90;;
16577;SDS011;8401;52.528;13.340;2022-09-09T12:33:34;1.67;;;1.17;;
16577;SDS011;8401;52.528;13.340;2022-09-09T12:36:02;1.60;;;0.90;;
16577;SDS011;8401;52.528;13.340;2022-09-09T12:40:56;2.30;;;1.02;;
16577;SDS011;8401;52.528;13.340;2022-09-09T12:43:24;1.65;;;1.20;;
16577;SDS011;8401;52.528;13.340;2022-09-09T12:45:51;2.58;;;1.08;;
16577;SDS011;8401;52.528;13.340;2022-09-09T12:48:31;3.08;;;0.93;;
16577;SDS011;8401;52.528;13.340;2022-09-09T12:51:02;2.33;;;1.05;;
16577;SDS011;8401;52.528;13.340;2022-09-09T12:53:35;3.75;;;1.30;;
16577;SDS011;8401;52.528;13.340;2022-09-09T12:56:05;2.25;;;0.90;;
16577;SDS011;8401;52.528;13.340;2022-09-09T12:58:33;2.78;;;1.30;;
16577;SDS011;8401;52.528;13.340;2022-09-09T13:01:01;4.25;;;1.83;;
16577;SDS011;8401;52.528;13.340;2022-09-09T13:03:30;3.20;;;1.00;;
16577;SDS011;8401;52.528;13.340;2022-09-09T13:05:58;4.55;;;2.05;;
16577;SDS011;8401;52.528;13.340;2022-09-09T13:08:36;4.47;;;1.88;;
16577;SDS011;8401;52.528;13.340;2022-09-09T13:11:03;3.88;;;2.40;;
16577;SDS011;8401;52.528;13.340;2022-09-09T13:13:38;3.58;;;2.60;;
16577;SDS011;8401;52.528;13.340;2022-09-09T13:16:06;5.18;;;2.17;;
16577;SDS011;8401;52.528;13.340;2022-09-09T13:18:43;3.05;;;1.67;;
16577;SDS011;8401;52.528;13.340;2022-09-09T13:21:08;2.60;;;1.30;;
16577;SDS011;8401;52.528;13.340;2022-09-09T13:23:35;4.60;;;1.58;;
16577;SDS011;8401;52.528;13.340;2022-09-09T13:26:03;2.85;;;2.00;;
16577;SDS011;8401;52.528;13.340;2022-09-09T13:28:32;4.68;;;1.80;;
16577;SDS011;8401;52.528;13.340;2022-09-09T13:31:03;2.58;;;0.95;;
16577;SDS011;8401;52.528;13.340;2022-09-09T13:36:05;2.63;;;1.10;;
16577;SDS011;8401;52.528;13.340;2022-09-09T13:38:33;3.03;;;1.40;;
16577;SDS011;8401;52.528;13.340;2022-09-09T13:43:34;2.50;;;1.13;;
16577;SDS011;8401;52.528;13.340;2022-09-09T13:46:23;3.60;;;1.05;;
16577;SDS011;8401;52.528;13.340;2022-09-09T13:51:43;3.40;;;1.50;;
16577;SDS011;8401;52.528;13.340;2022-09-09T13:54:13;2.60;;;1.67;;
16577;SDS011;8401;52.528;13.340;2022-09-09T13:56:40;3.53;;;1.08;;
16577;SDS011;8401;52.528;13.340;2022-09-09T13:59:24;2.55;;;1.20;;
16577;SDS011;8401;52.528;13.340;2022-09-09T14:01:50;4.38;;;1.50;;
16577;SDS011;8401;52.528;13.340;2022-09-09T14:04:17;7.07;;;1.55;;
16577;SDS011;8401;52.528;13.340;2022-09-09T14:06:45;3.00;;;1.40;;
16577;SDS011;8401;52.528;13.340;2022-09-09T14:09:12;6.15;;;1.60;;
16577;SDS011;8401;52.528;13.340;2022-09-09T14:11:40;5.47;;;1.20;;
16577;SDS011;8401;52.528;13.340;2022-09-09T14:14:06;3.42;;;2.03;;
16577;SDS011;8401;52.528;13.340;2022-09-09T14:16:32;7.55;;;2.28;;
16577;SDS011;8401;52.528;13.340;2022-09-09T14:18:58;4.68;;;1.40;;
16577;SDS011;8401;52.528;13.340;2022-09-09T14:21:24;3.38;;;1.45;;
16577;SDS011;8401;52.528;13.340;2022-09-09T14:23:51;3.42;;;1.00;;
16577;SDS011;8401;52.528;13.340;2022-09-09T14:26:18;2.55;;;1.45;;
16577;SDS011;8401;52.528;13.340;2022-09-09T14:28:45;4.05;;;1.30;;
16577;SDS011;8401;52.528;13.340;2022-09-09T14:31:12;3.95;;;1.52;;
16577;SDS011;8401;52.528;13.340;2022-09-09T14:33:38;2.38;;;1.00;;
16577;SDS011;8401;52.528;13.340;2022-09-09T14:36:05;3.03;;;1.20;;
16577;SDS011;8401;52.528;13.340;2022-09-09T14:38:34;3.20;;;1.42;;
16577;SDS011;8401;52.528;13.340;2022-09-09T14:41:05;4.78;;;2.42;;
16577;SDS011;8401;52.528;13.340;2022-09-09T14:43:31;3.08;;;1.90;;
16577;SDS011;8401;52.528;13.340;2022-09-09T14:46:02;3.97;;;2.20;;
16577;SDS011;8401;52.528;13.340;2022-09-09T14:48:33;4.80;;;2.33;;
16577;SDS011;8401;52.528;13.340;2022-09-09T14:53:36;3.72;;;1.10;;
16577;SDS011;8401;52.528;13.340;2022-09-09T14:56:03;3.65;;;1.23;;
16577;SDS011;8401;52.528;13.340;2022-09-09T14:58:33;1.70;;;1.00;;
16577;SDS011;8401;52.528;13.340;2022-09-09T15:01:03;4.05;;;2.30;;
16577;SDS011;8401;52.528;13.340;2022-09-09T15:03:34;2.80;;;1.70;;
16577;SDS011;8401;52.528;13.340;2022-09-09T15:06:04;3.47;;;1.98;;
16577;SDS011;8401;52.528;13.340;2022-09-09T15:08:35;1.90;;;1.08;;
16577;SDS011;8401;52.528;13.340;2022-09-09T15:11:02;2.03;;;1.25;;
16577;SDS011;8401;52.528;13.340;2022-09-09T15:13:29;1.92;;;1.02;;
16577;SDS011;8401;52.528;13.340;2022-09-09T15:15:55;2.28;;;1.38;;
16577;SDS011;8401;52.528;13.340;2022-09-09T15:18:22;2.00;;;1.30;;
16577;SDS011;8401;52.528;13.340;2022-09-09T15:20:48;5.30;;;1.42;;
16577;SDS011;8401;52.528;13.340;2022-09-09T15:23:14;1.67;;;1.08;;
16577;SDS011;8401;52.528;13.340;2022-09-09T15:25:54;3.00;;;1.20;;
16577;SDS011;8401;52.528;13.340;2022-09-09T15:28:21;4.32;;;1.27;;
16577;SDS011;8401;52.528;13.340;2022-09-09T15:30:47;4.03;;;1.63;;
16577;SDS011;8401;52.528;13.340;2022-09-09T15:33:17;3.55;;;1.25;;
16577;SDS011;8401;52.528;13.340;2022-09-09T15:35:43;5.05;;;2.10;;
16577;SDS011;8401;52.528;13.340;2022-09-09T15:38:08;4.32;;;2.20;;
16577;SDS011;8401;52.528;13.340;2022-09-09T15:40:34;1.95;;;1.23;;
16577;SDS011;8401;52.528;13.340;2022-09-09T15:43:00;3.42;;;1.00;;
16577;SDS011;8401;52.528;13.340;2022-09-09T15:45:28;3.42;;;1.27;;
16577;SDS011;8401;52.528;13.340;2022-09-09T15:47:57;4.50;;;1.67;;
16577;SDS011;8401;52.528;13.340;2022-09-09T15:50:23;3.35;;;1.38;;
16577;SDS011;8401;52.528;13.340;2022-09-09T15:52:48;2.75;;;1.20;;
16577;SDS011;8401;52.528;13.340;2022-09-09T15:55:14;3.15;;;1.27;;
16577;SDS011;8401;52.528;13.340;2022-09-09T15:57:39;2.17;;;1.48;;
16577;SDS011;8401;52.528;13.340;2022-09-09T16:00:05;3.85;;;1.48;;
16577;SDS011;8401;52.528;13.340;2022-09-09T16:02:32;4.30;;;1.35;;
16577;SDS011;8401;52.528;13.340;2022-09-09T16:04:58;2.38;;;1.33;;
16577;SDS011;8401;52.528;13.340;2022-09-09T16:07:23;2.90;;;1.35;;
16577;SDS011;8401;52.528;13.340;2022-09-09T16:09:49;2.58;;;1.55;;
16577;SDS011;8401;52.528;13.340;2022-09-09T16:12:17;2.72;;;1.85;;
16577;SDS011;8401;52.528;13.340;2022-09-09T16:14:43;4.45;;;1.88;;
16577;SDS011;8401;52.528;13.340;2022-09-09T16:17:10;5.85;;;1.40;;
16577;SDS011;8401;52.528;13.340;2022-09-09T16:19:37;4.43;;;1.77;;
16577;SDS011;8401;52.528;13.340;2022-09-09T16:22:03;2.65;;;1.67;;
16577;SDS011;8401;52.528;13.340;2022-09-09T16:24:31;2.58;;;1.50;;
16577;SDS011;8401;52.528;13.340;2022-09-09T16:26:57;3.72;;;1.75;;
16577;SDS011;8401;52.528;13.340;2022-09-09T16:29:22;4.45;;;2.25;;
16577;SDS011;8401;52.528;13.340;2022-09-09T16:31:48;4.68;;;2.00;;
16577;SDS011;8401;52.528;13.340;2022-09-09T16:34:15;3.53;;;1.73;;
16577;SDS011;8401;52.528;13.340;2022-09-09T16:36:43;4.22;;;2.00;;
16577;SDS011;8401;52.528;13.340;2022-09-09T16:39:10;5.28;;;1.88;;
16577;SDS011;8401;52.528;13.340;2022-09-09T16:41:38;3.50;;;1.70;;
16577;SDS011;8401;52.528;13.340;2022-09-09T16:44:05;5.35;;;2.20;;
16577;SDS011;8401;52.528;13.340;2022-09-09T16:46:36;4.70;;;1.95;;
16577;SDS011;8401;52.528;13.340;2022-09-09T16:49:04;4.10;;;1.80;;
16577;SDS011;8401;52.528;13.340;2022-09-09T16:51:33;4.50;;;2.22;;
16577;SDS011;8401;52.528;13.340;2022-09-09T16:54:01;4.97;;;1.95;;
16577;SDS011;8401;52.528;13.340;2022-09-09T16:56:29;3.35;;;1.90;;
16577;SDS011;8401;52.528;13.340;2022-09-09T16:58:58;4.32;;;2.20;;
16577;SDS011;8401;52.528;13.340;2022-09-09T17:01:26;5.55;;;2.80;;
16577;SDS011;8401;52.528;13.340;2022-09-09T17:03:57;5.03;;;2.78;;
16577;SDS011;8401;52.528;13.340;2022-09-09T17:06:25;5.78;;;2.88;;
16577;SDS011;8401;52.528;13.340;2022-09-09T17:08:55;4.78;;;2.60;;
16577;SDS011;8401;52.528;13.340;2022-09-09T17:11:22;5.20;;;2.72;;
16577;SDS011;8401;52.528;13.340;2022-09-09T17:13:48;4.13;;;2.47;;
16577;SDS011;8401;52.528;13.340;2022-09-09T17:16:15;6.32;;;3.08;;
16577;SDS011;8401;52.528;13.340;2022-09-09T17:18:43;4.63;;;2.30;;
16577;SDS011;8401;52.528;13.340;2022-09-09T17:21:15;4.93;;;2.67;;